Time;durP1;ratioP1;P1;durP2;ratioP2;P2;SDS_P1;SDS_P2;PMS_P1;PMS_P2;Temp;Humidity;BMP_temperature;BMP_pressure;BME280_temperature;BME280_humidity;BME280_pressure;Samples;Min_cycle;Max_cycle;Signal;HPM_P1;HPM_P2
2021/01/02 00:00:21;;;;;;;123.07;56.17;;;2.30;90.70;;;;;;5005450;27;88266;-78
2021/01/02 00:03:06;;;;;;;117.23;53.93;;;2.20;91.00;;;;;;5004991;28;89858;-78
2021/01/02 00:05:47;;;;;;;143.17;57.00;;;2.10;91.10;;;;;;5014984;28;90437;-78
2021/01/02 00:08:14;;;;;;;121.13;54.20;;;2.20;91.00;;;;;;5016354;28;87805;-78
2021/01/02 00:11:06;;;;;;;118.73;53.10;;;2.20;90.90;;;;;;5040502;28;87633;-78
2021/01/02 00:14:06;;;;;;;101.28;49.13;;;2.20;90.90;;;;;;4984305;28;91593;-79
2021/01/02 00:16:55;;;;;;;108.67;49.73;;;2.10;90.50;;;;;;5002852;28;88234;-78
2021/01/02 00:19:41;;;;;;;109.53;50.80;;;2.10;90.60;;;;;;4970872;28;87196;-78
2021/01/02 00:22:12;;;;;;;101.83;49.57;;;2.10;90.70;;;;;;5027574;28;87510;-78
2021/01/02 00:24:59;;;;;;;95.07;49.07;;;2.10;90.70;;;;;;5017161;28;92447;-78
2021/01/02 00:27:42;;;;;;;100.57;48.83;;;2.10;90.70;;;;;;5021981;28;90022;-78
2021/01/02 00:30:11;;;;;;;100.53;47.10;;;2.10;90.50;;;;;;5021811;28;87162;-79
2021/01/02 00:32:49;;;;;;;139.63;53.50;;;2.20;90.40;;;;;;5002634;28;87995;-79
2021/01/02 00:35:23;;;;;;;100.73;47.93;;;2.20;90.50;;;;;;5022009;28;88300;-78
2021/01/02 00:38:07;;;;;;;109.67;50.90;;;2.10;90.50;;;;;;5012798;28;92140;-78
2021/01/02 00:40:35;;;;;;;110.77;50.77;;;2.10;90.40;;;;;;5032015;28;87099;-78
2021/01/02 00:43:01;;;;;;;112.93;52.40;;;2.10;90.40;;;;;;5018262;28;86778;-77
2021/01/02 00:45:32;;;;;;;107.23;53.83;;;2.10;90.40;;;;;;4989877;28;91047;-78
2021/01/02 00:48:00;;;;;;;127.10;54.60;;;2.10;90.50;;;;;;5013306;28;88526;-78
2021/01/02 00:50:28;;;;;;;109.10;51.93;;;2.10;90.60;;;;;;5007038;28;88311;-79
2021/01/02 00:52:55;;;;;;;100.50;48.50;;;2.10;90.60;;;;;;5001738;28;88649;-79
2021/01/02 00:55:42;;;;;;;115.10;54.73;;;2.10;90.50;;;;;;4986933;28;90146;-78
2021/01/02 00:58:12;;;;;;;125.27;58.67;;;2.20;90.30;;;;;;5020040;28;88549;-78
2021/01/02 01:00:43;;;;;;;131.23;59.03;;;2.20;90.60;;;;;;4986646;28;87079;-79
2021/01/02 01:03:39;;;;;;;132.38;59.15;;;2.10;90.80;;;;;;4987469;28;87839;-79
2021/01/02 01:06:04;;;;;;;120.20;59.23;;;2.20;90.80;;;;;;5014039;28;90931;-78
2021/01/02 01:08:34;;;;;;;144.80;61.00;;;2.20;90.60;;;;;;5026615;28;88400;-78
2021/01/02 01:11:10;;;;;;;145.77;59.27;;;2.20;90.40;;;;;;5010093;28;86926;-77
2021/01/02 01:13:38;;;;;;;140.50;57.87;;;2.20;90.50;;;;;;5011377;28;87307;-79
2021/01/02 01:16:04;;;;;;;121.03;59.50;;;2.10;90.50;;;;;;5005066;28;91020;-78
2021/01/02 01:19:11;;;;;;;156.87;62.30;;;2.10;90.60;;;;;;4990699;28;91064;-78
2021/01/02 01:21:44;;;;;;;153.60;59.70;;;2.10;90.50;;;;;;4929930;28;87346;-79
2021/01/02 01:24:22;;;;;;;122.17;56.67;;;2.00;90.80;;;;;;5004198;28;88152;-78
2021/01/02 01:26:51;;;;;;;108.30;52.47;;;2.00;90.90;;;;;;5002535;28;90094;-78
2021/01/02 01:29:24;;;;;;;105.40;49.03;;;1.90;90.60;;;;;;5003314;28;88462;-78
2021/01/02 01:31:58;;;;;;;91.30;46.43;;;1.90;90.50;;;;;;5005344;28;87062;-78
2021/01/02 01:34:25;;;;;;;92.87;47.70;;;1.80;90.60;;;;;;5034522;27;86156;-79
2021/01/02 01:36:52;;;;;;;113.77;50.93;;;1.80;90.50;;;;;;5003202;28;91408;-78
2021/01/02 01:39:22;;;;;;;94.03;47.37;;;1.80;90.40;;;;;;5003581;28;90181;-79
2021/01/02 01:41:59;;;;;;;87.70;48.40;;;1.80;90.30;;;;;;5020526;28;88325;-78
2021/01/02 01:44:56;;;;;;;84.23;46.17;;;1.80;90.30;;;;;;5006720;28;86953;-79
2021/01/02 01:47:49;;;;;;;87.20;45.53;;;1.80;90.10;;;;;;5025206;28;87860;-78
2021/01/02 01:50:18;;;;;;;96.87;50.37;;;1.80;90.10;;;;;;5015051;28;91679;-78
2021/01/02 01:52:55;;;;;;;103.83;52.43;;;1.90;90.10;;;;;;5003501;28;87532;-78
2021/01/02 01:55:29;;;;;;;96.73;50.23;;;1.90;89.90;;;;;;5019816;28;87477;-78
2021/01/02 01:58:14;;;;;;;91.87;48.37;;;1.90;90.00;;;;;;5000460;28;90033;-78
2021/01/02 02:00:51;;;;;;;99.33;51.53;;;1.80;90.10;;;;;;5015420;28;91154;-78
2021/01/02 02:03:24;;;;;;;94.83;49.07;;;1.90;90.00;;;;;;5039110;28;87385;-78
2021/01/02 02:05:53;;;;;;;92.17;48.10;;;1.90;89.60;;;;;;5021508;28;87072;-78
2021/01/02 02:08:40;;;;;;;94.07;49.67;;;1.90;89.40;;;;;;4983838;28;91712;-78
2021/01/02 02:11:06;;;;;;;92.63;49.43;;;1.80;89.60;;;;;;5005004;28;88571;-79
2021/01/02 02:13:42;;;;;;;91.83;48.00;;;1.80;89.50;;;;;;5039554;28;87158;-79
2021/01/02 02:16:10;;;;;;;93.80;48.77;;;1.80;89.40;;;;;;5007071;28;88270;-79
2021/01/02 02:18:43;;;;;;;89.90;47.53;;;1.80;89.20;;;;;;5016850;28;91035;-78
2021/01/02 02:21:11;;;;;;;93.87;49.73;;;1.80;89.00;;;;;;4987790;28;90751;-78
2021/01/02 02:23:50;;;;;;;86.23;46.73;;;1.80;88.80;;;;;;5000161;28;87114;-78
2021/01/02 02:26:26;;;;;;;90.30;50.10;;;1.80;89.00;;;;;;5014321;28;87549;-78
2021/01/02 02:29:12;;;;;;;83.37;47.13;;;1.80;89.40;;;;;;5020580;28;88292;-78
2021/01/02 02:31:46;;;;;;;84.80;46.43;;;1.90;88.70;;;;;;5002898;28;91795;-78
2021/01/02 02:34:13;;;;;;;76.13;45.50;;;2.00;88.30;;;;;;5006288;28;88668;-78
2021/01/02 02:36:40;;;;;;;86.10;45.47;;;2.10;88.00;;;;;;5000311;28;87568;-78
2021/01/02 02:39:14;;;;;;;87.20;48.60;;;2.10;87.50;;;;;;4998799;28;91769;-78
2021/01/02 02:41:50;;;;;;;80.83;46.27;;;2.10;86.90;;;;;;5000571;28;91165;-78
2021/01/02 02:44:37;;;;;;;80.00;47.17;;;2.20;86.90;;;;;;5014623;28;87957;-78
2021/01/02 02:47:04;;;;;;;88.43;47.63;;;2.20;86.70;;;;;;4982694;28;87317;-78
2021/01/02 02:49:31;;;;;;;94.10;52.57;;;2.20;86.40;;;;;;5007272;28;91115;-78
2021/01/02 02:52:43;;;;;;;84.70;49.60;;;2.20;86.30;;;;;;5009273;28;91371;-78
2021/01/02 02:55:25;;;;;;;85.27;48.87;;;2.20;86.40;;;;;;4999746;28;87106;-78
2021/01/02 02:57:50;;;;;;;91.32;48.97;;;2.20;86.10;;;;;;5003776;28;88107;-78
2021/01/02 03:00:18;;;;;;;88.27;51.80;;;2.10;86.00;;;;;;5002282;28;92802;-78
2021/01/02 03:02:48;;;;;;;82.43;47.80;;;2.20;86.30;;;;;;5001858;28;91215;-78
2021/01/02 03:05:16;;;;;;;85.13;47.27;;;2.10;86.10;;;;;;4998670;28;87693;-78
2021/01/02 03:07:47;;;;;;;90.70;47.63;;;2.10;86.00;;;;;;4999848;28;87786;-78
2021/01/02 03:10:15;;;;;;;85.53;48.23;;;2.10;86.00;;;;;;5017505;28;88742;-78
2021/01/02 03:12:45;;;;;;;83.83;48.57;;;2.10;86.10;;;;;;4999929;28;90875;-78
2021/01/02 03:15:16;;;;;;;86.10;45.97;;;2.10;86.30;;;;;;5017280;28;87055;-78
2021/01/02 03:17:43;;;;;;;90.77;50.27;;;2.00;86.40;;;;;;5000415;28;88197;-78
2021/01/02 03:20:10;;;;;;;84.20;48.57;;;2.00;86.40;;;;;;4999665;28;88375;-78
2021/01/02 03:22:40;;;;;;;88.77;49.47;;;2.00;87.00;;;;;;5008679;28;91384;-78
2021/01/02 03:25:08;;;;;;;86.07;48.33;;;1.90;86.80;;;;;;5002890;28;87886;-78
2021/01/02 03:27:34;;;;;;;86.20;46.77;;;1.90;87.30;;;;;;5019997;28;87763;-79
2021/01/02 03:30:00;;;;;;;85.57;47.67;;;1.90;87.30;;;;;;5002983;28;90966;-77
2021/01/02 03:32:26;;;;;;;82.43;46.20;;;1.90;87.40;;;;;;5019195;28;92166;-79
2021/01/02 03:34:52;;;;;;;85.67;47.40;;;1.90;87.30;;;;;;5001316;28;87107;-78
2021/01/02 03:37:18;;;;;;;83.93;47.63;;;1.90;87.30;;;;;;5032304;28;87083;-78
2021/01/02 03:39:44;;;;;;;88.80;50.03;;;1.80;87.20;;;;;;5009710;28;89077;-78
2021/01/02 03:42:10;;;;;;;86.23;47.83;;;1.80;87.10;;;;;;5019991;28;87880;-78
2021/01/02 03:44:36;;;;;;;91.00;48.77;;;1.80;87.00;;;;;;5021574;28;87407;-78
2021/01/02 03:47:06;;;;;;;85.57;48.43;;;1.80;87.00;;;;;;5021502;28;87536;-78
2021/01/02 03:49:32;;;;;;;81.93;44.30;;;1.80;87.00;;;;;;5025056;28;90790;-79
2021/01/02 03:52:05;;;;;;;86.17;48.17;;;1.70;87.20;;;;;;5020216;28;88313;-79
2021/01/02 03:54:32;;;;;;;79.87;45.83;;;1.70;87.10;;;;;;5028019;27;87021;-78
2021/01/02 03:56:58;;;;;;;88.83;47.30;;;1.70;87.50;;;;;;5039372;27;87233;-79
2021/01/02 03:59:24;;;;;;;80.40;45.40;;;1.60;87.40;;;;;;5040712;28;88242;-79
2021/01/02 04:01:58;;;;;;;82.63;44.40;;;1.60;87.50;;;;;;5040694;28;87961;-79
2021/01/02 04:04:24;;;;;;;88.13;48.37;;;1.60;87.60;;;;;;5038795;27;88077;-79
2021/01/02 04:06:52;;;;;;;81.27;46.53;;;1.50;87.70;;;;;;5018655;27;86782;-78
2021/01/02 04:09:19;;;;;;;88.10;48.90;;;1.50;87.40;;;;;;5016435;28;88116;-79
2021/01/02 04:11:46;;;;;;;81.47;47.83;;;1.50;87.40;;;;;;5002425;28;87442;-78
2021/01/02 04:14:13;;;;;;;86.00;46.17;;;1.40;87.50;;;;;;4995168;28;88202;-79
2021/01/02 04:16:39;;;;;;;90.13;49.57;;;1.30;87.70;;;;;;5019730;28;87516;-78
2021/01/02 04:19:06;;;;;;;96.10;50.77;;;1.30;88.20;;;;;;5021038;28;90278;-78
2021/01/02 04:21:32;;;;;;;93.67;49.73;;;1.30;88.90;;;;;;5022143;28;91173;-79
2021/01/02 04:23:59;;;;;;;96.93;51.23;;;1.30;88.70;;;;;;5019935;27;87202;-78
2021/01/02 04:26:25;;;;;;;89.10;48.93;;;1.30;88.60;;;;;;5027961;28;87803;-78
2021/01/02 04:28:52;;;;;;;81.83;45.73;;;1.30;88.20;;;;;;5017530;28;88719;-79
2021/01/02 04:31:30;;;;;;;88.07;49.97;;;1.30;88.40;;;;;;4988388;28;90994;-79
2021/01/02 04:33:56;;;;;;;98.07;52.60;;;1.30;87.70;;;;;;5019555;28;87556;-78
2021/01/02 04:36:22;;;;;;;100.07;55.23;;;1.30;87.70;;;;;;5006610;28;87413;-78
2021/01/02 04:38:48;;;;;;;93.23;52.03;;;1.20;88.00;;;;;;5020500;28;91967;-78
2021/01/02 04:41:14;;;;;;;96.23;50.07;;;1.20;88.20;;;;;;5004454;28;92243;-78
2021/01/02 04:43:44;;;;;;;108.93;56.23;;;1.10;88.30;;;;;;5010442;28;87393;-78
2021/01/02 04:46:12;;;;;;;106.57;53.43;;;1.10;88.50;;;;;;4982063;28;87756;-79
2021/01/02 04:48:42;;;;;;;103.07;52.57;;;1.10;88.70;;;;;;5000266;28;88763;-79
2021/01/02 04:51:12;;;;;;;97.93;51.47;;;1.00;88.90;;;;;;5005337;28;91721;-79
2021/01/02 04:53:39;;;;;;;102.70;52.53;;;1.00;89.40;;;;;;5031911;27;87449;-79
2021/01/02 04:56:06;;;;;;;94.63;51.43;;;0.90;89.80;;;;;;5018601;28;86438;-78
2021/01/02 04:58:37;;;;;;;94.17;51.50;;;0.90;90.00;;;;;;5018122;28;92110;-78
2021/01/02 05:01:04;;;;;;;97.70;50.20;;;0.90;89.90;;;;;;5020142;28;88489;-78
2021/01/02 05:03:34;;;;;;;95.40;49.07;;;0.90;89.40;;;;;;5000779;28;87885;-78
2021/01/02 05:06:04;;;;;;;91.67;49.57;;;1.00;89.10;;;;;;5013977;28;87278;-79
2021/01/02 05:08:30;;;;;;;86.23;48.00;;;1.00;88.70;;;;;;5000969;28;91564;-78
2021/01/02 05:11:01;;;;;;;91.23;47.63;;;1.00;88.30;;;;;;5015654;28;87972;-79
2021/01/02 05:13:32;;;;;;;94.87;48.17;;;1.10;88.10;;;;;;4998085;28;86973;-79
2021/01/02 05:16:23;;;;;;;99.18;49.17;;;1.00;87.70;;;;;;5000032;28;87085;-79
2021/01/02 05:19:01;;;;;;;95.00;43.33;;;1.00;87.90;;;;;;4998607;28;87768;-78
2021/01/02 05:21:31;;;;;;;89.87;44.17;;;0.90;87.60;;;;;;4997355;28;91377;-79
2021/01/02 05:24:21;;;;;;;83.30;45.77;;;0.90;87.50;;;;;;5001394;28;87388;-79
2021/01/02 05:26:56;;;;;;;164.03;67.80;;;0.90;87.40;;;;;;4996719;28;88205;-78
2021/01/02 05:29:29;;;;;;;113.57;51.37;;;1.00;87.00;;;;;;5017906;28;89135;-78
2021/01/02 05:32:03;;;;;;;91.33;47.63;;;0.90;87.10;;;;;;5004015;28;91440;-78
2021/01/02 05:34:31;;;;;;;91.60;47.80;;;0.80;87.60;;;;;;5021424;28;87133;-78
2021/01/02 05:37:05;;;;;;;91.57;46.93;;;0.80;87.80;;;;;;5021115;28;87623;-79
2021/01/02 05:39:49;;;;;;;90.50;44.50;;;0.80;88.00;;;;;;5020814;28;91725;-78
2021/01/02 05:42:16;;;;;;;85.70;43.67;;;0.60;88.70;;;;;;5020577;28;87628;-78
2021/01/02 05:44:42;;;;;;;86.23;45.20;;;0.60;88.40;;;;;;5004341;28;87615;-78
2021/01/02 05:47:12;;;;;;;87.93;46.23;;;0.60;88.10;;;;;;5018170;28;86221;-79
2021/01/02 05:49:49;;;;;;;83.93;44.23;;;0.60;88.00;;;;;;5000991;28;87487;-78
2021/01/02 05:52:16;;;;;;;87.20;46.60;;;0.50;88.10;;;;;;5000051;28;91255;-79
2021/01/02 05:54:50;;;;;;;83.70;43.37;;;0.50;88.20;;;;;;4998804;28;88011;-79
2021/01/02 05:57:27;;;;;;;84.43;44.33;;;0.40;88.20;;;;;;5000126;28;88054;-78
2021/01/02 05:59:55;;;;;;;90.33;46.80;;;0.30;88.40;;;;;;5020781;28;91116;-78
2021/01/02 06:02:31;;;;;;;86.27;47.93;;;0.20;88.80;;;;;;5020272;28;91620;-78
2021/01/02 06:05:08;;;;;;;133.13;51.83;;;0.20;88.90;;;;;;5040844;28;86910;-78
2021/01/02 06:07:39;;;;;;;88.93;49.93;;;0.30;88.70;;;;;;5008516;28;87071;-79
2021/01/02 06:10:07;;;;;;;107.67;51.40;;;0.30;88.60;;;;;;5005155;28;90991;-78
2021/01/02 06:12:35;;;;;;;82.97;46.13;;;0.30;88.20;;;;;;5017172;28;91662;-78
2021/01/02 06:15:06;;;;;;;87.60;47.30;;;0.20;88.20;;;;;;4988168;28;87984;-79
2021/01/02 06:17:34;;;;;;;85.97;47.37;;;0.30;88.30;;;;;;5020174;28;87918;-78
2021/01/02 06:20:03;;;;;;;87.93;45.47;;;0.30;87.50;;;;;;5008266;28;88737;-78
2021/01/02 06:22:29;;;;;;;81.30;45.53;;;0.40;87.00;;;;;;4999766;28;92348;-78
2021/01/02 06:24:55;;;;;;;78.20;44.60;;;0.40;86.50;;;;;;5000058;28;87193;-78
2021/01/02 06:27:21;;;;;;;75.93;43.33;;;0.40;86.20;;;;;;5000246;28;87165;-78
2021/01/02 06:29:59;;;;;;;76.43;39.93;;;0.50;85.70;;;;;;4983523;28;91466;-79
2021/01/02 06:32:29;;;;;;;76.60;41.77;;;0.40;85.40;;;;;;5017785;28;88094;-78
2021/01/02 06:35:10;;;;;;;86.13;45.30;;;0.30;85.50;;;;;;5003124;28;87093;-78
2021/01/02 06:37:48;;;;;;;78.83;43.27;;;0.30;85.60;;;;;;5039412;28;86290;-78
2021/01/02 06:40:42;;;;;;;77.90;44.20;;;0.40;85.10;;;;;;5002980;28;91804;-78
2021/01/02 06:43:11;;;;;;;85.83;44.43;;;0.40;85.10;;;;;;4989994;28;91210;-78
2021/01/02 06:45:41;;;;;;;83.70;43.80;;;0.40;84.30;;;;;;5018374;28;88516;-78
2021/01/02 06:48:13;;;;;;;78.53;42.23;;;0.40;84.60;;;;;;5000370;28;87393;-78
2021/01/02 06:50:46;;;;;;;78.05;39.47;;;0.40;84.60;;;;;;5031917;27;87991;-77
2021/01/02 06:53:18;;;;;;;78.37;40.47;;;0.50;84.30;;;;;;5009694;28;90831;-78
2021/01/02 06:55:44;;;;;;;75.28;40.67;;;0.50;84.30;;;;;;5008809;28;87471;-78
2021/01/02 06:58:17;;;;;;;77.57;41.00;;;0.50;84.30;;;;;;4999223;28;87459;-78
2021/01/02 07:00:44;;;;;;;70.30;38.83;;;0.50;84.20;;;;;;5030348;27;91354;-78
2021/01/02 07:03:41;;;;;;;72.87;37.77;;;0.50;84.50;;;;;;5038384;28;87895;-78
2021/01/02 07:06:30;;;;;;;71.63;38.83;;;0.50;84.10;;;;;;5002878;28;87485;-78
2021/01/02 07:09:15;;;;;;;72.90;38.47;;;0.50;84.00;;;;;;5018168;28;88064;-78
2021/01/02 07:11:43;;;;;;;77.93;39.20;;;0.60;84.20;;;;;;5001905;28;92080;-78
2021/01/02 07:14:09;;;;;;;85.83;41.67;;;0.50;84.10;;;;;;5002933;28;92505;-77
2021/01/02 07:16:51;;;;;;;82.53;42.07;;;0.50;84.40;;;;;;5003669;28;87008;-78
2021/01/02 07:19:26;;;;;;;82.32;42.83;;;0.50;84.80;;;;;;5005954;28;87113;-79
2021/01/02 07:21:59;;;;;;;77.33;40.80;;;0.50;84.50;;;;;;5019765;28;88378;-78
2021/01/02 07:24:28;;;;;;;76.53;41.23;;;0.60;84.40;;;;;;5037474;28;87299;-78
2021/01/02 07:27:23;;;;;;;86.03;42.57;;;0.60;84.40;;;;;;5003088;28;87065;-78
2021/01/02 07:29:50;;;;;;;89.73;44.53;;;0.60;84.30;;;;;;5002556;28;86859;-78
2021/01/02 07:32:19;;;;;;;87.40;45.43;;;0.60;84.40;;;;;;5037275;27;88013;-78
2021/01/02 07:34:56;;;;;;;87.17;43.93;;;0.60;84.60;;;;;;5003484;28;90711;-79
2021/01/02 07:37:31;;;;;;;90.30;47.03;;;0.60;84.90;;;;;;5014456;28;88315;-79
2021/01/02 07:40:06;;;;;;;99.10;48.53;;;0.70;84.90;;;;;;5039732;28;87021;-78
2021/01/02 07:42:37;;;;;;;89.43;48.23;;;0.60;84.90;;;;;;5006923;28;89348;-78
2021/01/02 07:45:11;;;;;;;94.82;48.03;;;0.60;85.20;;;;;;4992794;28;91449;-79
2021/01/02 07:47:45;;;;;;;90.47;46.70;;;0.70;85.20;;;;;;5014687;28;87143;-79
2021/01/02 07:50:13;;;;;;;88.87;47.40;;;0.60;85.30;;;;;;5013524;27;87947;-78
2021/01/02 07:52:49;;;;;;;97.13;49.70;;;0.60;85.80;;;;;;5002496;28;90764;-79
2021/01/02 07:55:16;;;;;;;97.00;49.40;;;0.70;85.50;;;;;;5004641;28;91996;-79
2021/01/02 07:57:41;;;;;;;91.93;50.43;;;0.80;85.40;;;;;;5005645;28;87437;-78
2021/01/02 08:00:09;;;;;;;89.27;48.97;;;0.80;85.10;;;;;;5038197;28;87336;-78
2021/01/02 08:02:40;;;;;;;96.15;50.58;;;0.90;85.00;;;;;;5016770;28;92567;-79
2021/01/02 08:05:11;;;;;;;98.17;50.80;;;1.00;84.30;;;;;;5017828;28;92504;-78
2021/01/02 08:07:38;;;;;;;93.03;50.75;;;1.10;84.30;;;;;;5040377;28;87055;-79
2021/01/02 08:10:08;;;;;;;94.07;51.37;;;1.10;84.20;;;;;;5006228;28;87370;-79
2021/01/02 08:12:35;;;;;;;97.40;53.60;;;1.20;83.70;;;;;;5023175;28;89972;-79
2021/01/02 08:15:01;;;;;;;95.20;51.97;;;1.40;83.20;;;;;;5023175;28;89561;-79
2021/01/02 08:17:41;;;;;;;96.10;51.67;;;1.40;83.00;;;;;;5040984;28;86914;-79
2021/01/02 08:20:08;;;;;;;93.73;50.63;;;1.50;82.50;;;;;;5023362;28;86270;-77
2021/01/02 08:22:36;;;;;;;92.07;50.60;;;1.50;82.70;;;;;;5021767;28;89332;-78
2021/01/02 08:25:10;;;;;;;96.60;53.00;;;1.40;82.90;;;;;;5006448;28;89810;-79
2021/01/02 08:27:36;;;;;;;95.80;53.47;;;1.50;83.20;;;;;;5021459;28;88356;-78
2021/01/02 08:30:09;;;;;;;91.50;51.30;;;1.50;83.30;;;;;;5041303;28;87376;-78
2021/01/02 08:32:42;;;;;;;;;;;1.60;83.00;;;;;;4998885;28;91889;-79
2021/01/02 08:35:25;;;;;;;88.97;46.93;;;1.60;82.90;;;;;;5021808;28;90104;-78
2021/01/02 08:37:51;;;;;;;102.10;53.03;;;1.50;83.20;;;;;;5019541;28;87655;-79
2021/01/02 08:40:18;;;;;;;94.53;52.37;;;1.60;83.00;;;;;;5038613;28;87481;-79
2021/01/02 08:42:47;;;;;;;97.20;52.50;;;1.50;83.30;;;;;;5002352;27;91763;-79
2021/01/02 08:45:25;;;;;;;89.37;50.90;;;1.50;83.20;;;;;;5019840;28;92060;-78
2021/01/02 08:48:04;;;;;;;89.07;49.93;;;1.50;83.70;;;;;;5000937;28;87301;-79
2021/01/02 08:50:30;;;;;;;95.80;50.93;;;1.50;83.60;;;;;;5017455;28;88030;-78
2021/01/02 08:52:56;;;;;;;89.00;49.50;;;1.60;83.40;;;;;;5004655;28;92809;-79
2021/01/02 08:55:21;;;;;;;83.77;49.97;;;1.70;83.40;;;;;;5038887;28;89065;-79
2021/01/02 08:57:49;;;;;;;91.40;49.17;;;1.70;82.90;;;;;;5037050;28;86896;-79
2021/01/02 09:00:30;;;;;;;89.73;52.20;;;1.70;82.40;;;;;;5022224;28;88253;-79
2021/01/02 09:03:00;;;;;;;92.43;51.20;;;1.60;83.10;;;;;;5005112;28;91315;-78
2021/01/02 09:05:28;;;;;;;89.73;50.60;;;1.60;83.80;;;;;;5005467;27;91095;-79
2021/01/02 09:08:09;;;;;;;90.93;48.90;;;1.70;84.00;;;;;;5031228;27;87045;-78
2021/01/02 09:10:42;;;;;;;89.30;48.57;;;1.70;83.70;;;;;;5043044;27;86442;-79
2021/01/02 09:13:24;;;;;;;90.80;51.67;;;1.80;84.10;;;;;;5011619;27;91296;-77
2021/01/02 09:16:00;;;;;;;88.83;49.73;;;1.90;84.00;;;;;;5019348;27;90819;-77
2021/01/02 09:18:31;;;;;;;115.97;58.80;;;2.00;83.60;;;;;;5022519;27;88410;-79
2021/01/02 09:21:06;;;;;;;86.57;50.53;;;2.20;83.20;;;;;;5009467;27;87996;-78
2021/01/02 09:23:33;;;;;;;88.70;50.53;;;2.20;82.50;;;;;;5016273;27;91679;-79
2021/01/02 09:25:59;;;;;;;107.63;60.27;;;2.20;83.00;;;;;;5012968;27;90210;-80
2021/01/02 09:28:25;;;;;;;112.97;63.10;;;2.30;83.30;;;;;;5030455;27;87550;-79
2021/01/02 09:30:51;;;;;;;93.27;52.10;;;2.30;83.00;;;;;;5031608;27;87520;-79
2021/01/02 09:33:17;;;;;;;87.00;50.13;;;2.30;82.80;;;;;;5032919;28;90019;-79
2021/01/02 09:35:46;;;;;;;90.00;49.47;;;2.30;82.60;;;;;;5012579;27;90916;-79
2021/01/02 09:38:13;;;;;;;90.67;50.13;;;2.40;82.60;;;;;;5034235;27;87229;-79
2021/01/02 09:40:41;;;;;;;83.03;49.47;;;2.40;82.60;;;;;;5015017;27;87146;-79
2021/01/02 09:43:13;;;;;;;107.23;60.13;;;2.40;82.70;;;;;;5030008;27;89291;-78
2021/01/02 09:45:39;;;;;;;;;;;2.50;82.50;;;;;;5017091;27;91225;-78
2021/01/02 09:48:05;;;;;;;107.40;57.53;;;2.50;82.30;;;;;;5054693;27;87386;-80
2021/01/02 09:50:33;;;;;;;100.33;55.37;;;2.60;82.00;;;;;;5021609;27;87851;-81
2021/01/02 09:53:00;;;;;;;120.37;60.73;;;2.60;81.70;;;;;;5054038;27;88631;-78
2021/01/02 09:55:25;;;;;;;115.37;58.93;;;2.70;81.50;;;;;;5029174;27;90896;-80
2021/01/02 09:57:51;;;;;;;96.57;54.63;;;2.70;81.50;;;;;;5026774;28;87870;-80
2021/01/02 10:00:19;;;;;;;98.60;53.30;;;2.80;81.40;;;;;;5010347;27;87257;-80
2021/01/02 10:02:45;;;;;;;115.27;62.07;;;2.80;81.20;;;;;;5026698;27;88863;-80
2021/01/02 10:05:16;;;;;;;105.37;57.40;;;2.80;81.20;;;;;;5038664;27;87210;-77
2021/01/02 10:07:43;;;;;;;96.20;53.07;;;2.80;80.90;;;;;;5001568;27;87979;-79
2021/01/02 10:10:10;;;;;;;95.17;54.50;;;2.80;80.70;;;;;;5017325;27;88484;-79
2021/01/02 10:12:36;;;;;;;91.33;51.50;;;2.80;80.90;;;;;;5035502;27;88391;-80
2021/01/02 10:15:03;;;;;;;83.53;50.30;;;2.80;80.70;;;;;;5054956;27;87992;-79
2021/01/02 10:17:29;;;;;;;94.23;55.73;;;2.90;81.10;;;;;;5048734;27;86923;-79
2021/01/02 10:19:56;;;;;;;89.97;55.03;;;2.90;81.50;;;;;;5023197;27;87738;-79
2021/01/02 10:22:23;;;;;;;91.43;52.40;;;2.90;81.50;;;;;;5023276;27;88255;-79
2021/01/02 10:24:52;;;;;;;92.37;53.57;;;2.90;81.80;;;;;;5049598;27;88930;-81
2021/01/02 10:27:19;;;;;;;98.27;54.43;;;3.00;81.70;;;;;;5019146;27;87427;-78
2021/01/02 10:29:48;;;;;;;94.73;54.23;;;3.00;81.10;;;;;;5030816;27;87328;-79
2021/01/02 10:32:15;;;;;;;100.57;55.53;;;3.00;81.00;;;;;;5030987;27;93211;-77
2021/01/02 10:34:43;;;;;;;87.83;49.67;;;2.90;81.40;;;;;;5004146;27;87441;-79
2021/01/02 10:37:09;;;;;;;88.73;50.90;;;2.90;82.00;;;;;;5026300;27;87449;-80
2021/01/02 10:39:42;;;;;;;92.17;52.40;;;3.00;82.30;;;;;;5005475;27;87749;-79
2021/01/02 10:42:10;;;;;;;90.93;53.30;;;3.00;82.40;;;;;;5049380;27;87780;-80
2021/01/02 10:44:36;;;;;;;98.10;57.83;;;3.10;82.40;;;;;;5054922;27;88150;-79
2021/01/02 10:47:02;;;;;;;97.70;54.43;;;3.10;82.50;;;;;;5018414;27;87136;-78
2021/01/02 10:49:28;;;;;;;110.70;62.10;;;3.10;82.80;;;;;;5032281;27;87751;-79
2021/01/02 10:51:55;;;;;;;113.70;61.40;;;3.10;83.00;;;;;;5012844;27;91738;-79
2021/01/02 10:54:22;;;;;;;108.03;62.73;;;3.10;83.20;;;;;;5030381;27;87897;-79
2021/01/02 10:56:52;;;;;;;107.20;58.43;;;3.00;83.80;;;;;;5042759;27;88494;-79
2021/01/02 10:59:21;;;;;;;115.07;60.13;;;2.90;84.20;;;;;;5027603;27;87282;-79
2021/01/02 11:01:50;;;;;;;113.00;62.77;;;2.90;85.20;;;;;;5011680;27;91575;-79
2021/01/02 11:04:17;;;;;;;108.47;59.63;;;3.00;86.10;;;;;;5012203;27;91384;-79
2021/01/02 11:06:45;;;;;;;111.37;61.83;;;3.10;85.20;;;;;;5054776;27;87036;-80
2021/01/02 11:09:15;;;;;;;107.30;58.00;;;3.20;84.30;;;;;;5007423;28;87057;-79
2021/01/02 11:11:42;;;;;;;102.87;55.70;;;3.30;83.80;;;;;;5006707;28;89863;-80
2021/01/02 11:14:10;;;;;;;99.67;54.90;;;3.30;83.10;;;;;;5003588;28;89429;-80
2021/01/02 11:16:45;;;;;;;100.17;57.63;;;3.30;83.60;;;;;;5043861;28;87103;-80
2021/01/02 11:19:25;;;;;;;103.97;56.33;;;3.40;83.80;;;;;;5046506;28;88353;-78
2021/01/02 11:21:56;;;;;;;104.17;57.53;;;3.40;84.00;;;;;;5046100;27;89169;-80
2021/01/02 11:24:25;;;;;;;98.53;57.40;;;3.40;83.90;;;;;;5044857;28;88643;-80
2021/01/02 11:26:54;;;;;;;104.27;57.83;;;3.50;83.90;;;;;;5045458;28;87224;-80
2021/01/02 11:29:24;;;;;;;104.93;59.43;;;3.60;84.00;;;;;;5025310;28;87592;-80
2021/01/02 11:31:51;;;;;;;103.97;57.63;;;3.70;84.00;;;;;;5003152;28;90317;-80
2021/01/02 11:34:19;;;;;;;110.87;61.77;;;3.70;83.90;;;;;;5020617;28;87253;-80
2021/01/02 11:36:52;;;;;;;110.07;62.23;;;3.70;83.50;;;;;;5048460;28;88465;-80
2021/01/02 11:39:18;;;;;;;105.20;63.45;;;3.80;83.10;;;;;;5046505;28;86450;-80
2021/01/02 11:41:45;;;;;;;99.63;53.90;;;3.90;83.50;;;;;;5045396;28;87639;-79
2021/01/02 11:44:15;;;;;;;98.27;58.07;;;4.00;82.00;;;;;;5014457;28;87484;-80
2021/01/02 11:46:43;;;;;;;97.53;54.40;;;4.10;81.60;;;;;;5002591;28;87878;-80
2021/01/02 11:49:11;;;;;;;96.30;54.43;;;4.10;81.60;;;;;;5016382;28;87092;-80
2021/01/02 11:51:37;;;;;;;98.10;56.57;;;4.20;80.90;;;;;;5001742;28;87663;-80
2021/01/02 11:54:06;;;;;;;96.77;53.80;;;4.20;80.10;;;;;;4972400;27;91313;-80
2021/01/02 11:56:33;;;;;;;96.70;55.30;;;4.20;80.20;;;;;;5042015;27;87133;-80
2021/01/02 11:59:00;;;;;;;96.63;56.43;;;4.10;80.70;;;;;;5021193;28;87121;-79
2021/01/02 12:01:36;;;;;;;93.67;55.67;;;4.20;80.00;;;;;;5019071;28;91768;-80
2021/01/02 12:04:02;;;;;;;92.50;57.37;;;4.10;80.30;;;;;;5038055;28;88512;-79
2021/01/02 12:06:30;;;;;;;93.73;56.63;;;4.00;80.80;;;;;;5038106;28;87573;-80
2021/01/02 12:08:57;;;;;;;93.53;57.77;;;4.00;81.10;;;;;;5003669;28;87136;-79
2021/01/02 12:11:32;;;;;;;94.27;55.07;;;4.00;81.30;;;;;;5012406;28;92204;-79
2021/01/02 12:13:59;;;;;;;99.07;59.80;;;4.00;81.80;;;;;;5012740;28;88641;-80
2021/01/02 12:16:34;;;;;;;89.43;53.77;;;4.00;81.10;;;;;;5006597;28;87004;-80
2021/01/02 12:19:02;;;;;;;76.47;46.57;;;4.00;81.20;;;;;;5025403;28;87700;-80
2021/01/02 12:21:27;;;;;;;92.83;54.57;;;3.90;80.70;;;;;;5035696;27;87503;-80
2021/01/02 12:23:53;;;;;;;87.37;53.17;;;3.90;81.40;;;;;;5003708;28;90245;-79
2021/01/02 12:26:20;;;;;;;92.67;57.83;;;4.00;81.90;;;;;;5005848;28;88000;-79
2021/01/02 12:28:46;;;;;;;93.23;56.60;;;4.10;82.20;;;;;;5003498;28;87671;-79
2021/01/02 12:31:24;;;;;;;86.93;51.93;;;4.10;82.00;;;;;;5049694;27;88324;-82
2021/01/02 12:33:52;;;;;;;92.27;57.10;;;4.00;82.00;;;;;;5033319;27;88048;-79
2021/01/02 12:36:28;;;;;;;88.27;53.90;;;4.00;82.50;;;;;;5030160;27;88226;-79
2021/01/02 12:38:54;;;;;;;94.27;55.83;;;4.00;83.10;;;;;;5042885;27;87541;-79
2021/01/02 12:41:20;;;;;;;97.10;55.07;;;3.90;83.70;;;;;;5012021;28;91422;-80
2021/01/02 12:43:47;;;;;;;92.77;56.97;;;3.90;84.10;;;;;;5011144;28;87946;-79
2021/01/02 12:46:16;;;;;;;85.47;52.73;;;4.00;84.10;;;;;;5021210;28;87635;-79
2021/01/02 12:48:45;;;;;;;92.23;56.07;;;3.90;83.50;;;;;;4970725;28;87442;-80
2021/01/02 12:51:11;;;;;;;92.37;57.20;;;3.90;84.60;;;;;;5021891;27;88704;-79
2021/01/02 12:53:38;;;;;;;90.70;53.67;;;3.90;84.90;;;;;;5021513;27;90976;-79
2021/01/02 12:56:05;;;;;;;92.80;54.47;;;3.90;84.80;;;;;;5028517;27;87152;-80